Time;durP1;ratioP1;P1;durP2;ratioP2;P2;SDS_P1;SDS_P2;PMS_P1;PMS_P2;Temp;Humidity;BMP_temperature;BMP_pressure;BME280_temperature;BME280_humidity;BME280_pressure;Samples;Min_cycle;Max_cycle;Signal;HPM_P1;HPM_P2
2022/09/02 00:02:15;;;;;;;;;;;16.90;94.50;;;;;;4952323;29;20025;-83
2022/09/02 00:04:42;;;;;;;;;;;16.80;94.50;;;;;;4949224;28;19969;-84
2022/09/02 00:07:10;;;;;;;;;;;16.80;94.50;;;;;;4948391;28;20324;-84
2022/09/02 00:09:39;;;;;;;;;;;16.80;94.50;;;;;;4931780;29;19930;-83
2022/09/02 00:12:06;;;;;;;;;;;16.80;94.50;;;;;;4935532;29;20231;-83
2022/09/02 00:14:38;;;;;;;;;;;16.80;94.50;;;;;;4955367;28;19934;-83
2022/09/02 00:17:05;;;;;;;;;;;16.70;94.40;;;;;;4953422;28;19931;-84
2022/09/02 00:19:32;;;;;;;;;;;16.70;94.40;;;;;;4947447;28;19933;-84
2022/09/02 00:22:00;;;;;;;;;;;16.70;94.40;;;;;;4929112;29;19938;-84
2022/09/02 00:24:28;;;;;;;;;;;16.70;94.40;;;;;;4943538;29;19985;-83
2022/09/02 00:26:55;;;;;;;;;;;16.70;94.40;;;;;;4937900;29;21099;-84
2022/09/02 00:29:22;;;;;;;;;;;16.70;94.40;;;;;;4941349;29;19934;-84
2022/09/02 00:31:49;;;;;;;;;;;16.60;94.40;;;;;;4936262;28;20021;-83
2022/09/02 00:34:16;;;;;;;;;;;16.60;94.40;;;;;;4937406;29;20381;-84
2022/09/02 00:36:43;;;;;;;;;;;16.60;94.40;;;;;;4937201;29;19941;-84
2022/09/02 00:39:10;;;;;;;;;;;16.60;94.40;;;;;;4942701;29;19927;-83
2022/09/02 00:41:40;;;;;;;;;;;16.60;94.40;;;;;;4939569;29;19927;-84
2022/09/02 00:44:08;;;;;;;;;;;16.60;94.40;;;;;;4939136;29;20512;-84
2022/09/02 00:46:38;;;;;;;;;;;16.50;94.40;;;;;;4939474;29;19934;-84
2022/09/02 00:49:07;;;;;;;;;;;16.50;94.40;;;;;;4941031;29;19978;-84
2022/09/02 00:51:36;;;;;;;;;;;16.40;94.10;;;;;;4953508;29;20313;-84
2022/09/02 00:54:06;;;;;;;;;;;16.50;94.40;;;;;;4939529;28;19934;-84
2022/09/02 00:56:37;;;;;;;;;;;16.50;94.40;;;;;;4945971;28;21071;-83
2022/09/02 00:59:05;;;;;;;;;;;16.50;94.40;;;;;;4950416;28;19938;-83
2022/09/02 01:01:32;;;;;;;;;;;16.40;94.40;;;;;;4955028;29;20021;-84
2022/09/02 01:03:59;;;;;;;;;;;16.40;94.40;;;;;;4940116;29;20437;-83
2022/09/02 01:06:29;;;;;;;;;;;16.40;94.40;;;;;;4950374;28;19926;-83
2022/09/02 01:08:58;;;;;;;;;;;16.40;94.40;;;;;;4956454;28;19930;-84
2022/09/02 01:11:31;;;;;;;;;;;16.40;94.40;;;;;;4957199;28;20376;-84
2022/09/02 01:13:58;;;;;;;;;;;16.30;94.30;;;;;;4936444;28;19989;-84
2022/09/02 01:16:31;;;;;;;;;;;16.30;94.40;;;;;;4942730;28;19926;-84
2022/09/02 01:18:59;;;;;;;;;;;16.30;94.40;;;;;;4944403;29;20286;-84
2022/09/02 01:21:26;;;;;;;;;;;16.30;94.40;;;;;;4939362;29;19934;-84
2022/09/02 01:23:56;;;;;;;;;;;16.30;94.40;;;;;;4949556;28;19934;-85
2022/09/02 01:26:23;;;;;;;;;;;16.30;94.40;;;;;;4941474;29;19951;-84
2022/09/02 01:28:51;;;;;;;;;;;16.20;94.40;;;;;;4948387;29;19930;-84
2022/09/02 01:31:19;;;;;;;;;;;16.20;94.40;;;;;;4949214;29;19932;-84
2022/09/02 01:33:46;;;;;;;;;;;16.20;94.40;;;;;;4945844;29;19933;-84
2022/09/02 01:36:13;;;;;;;;;;;16.20;94.40;;;;;;4938356;29;19927;-84
2022/09/02 01:38:40;;;;;;;;;;;16.20;94.40;;;;;;4939250;29;19968;-84
2022/09/02 01:41:08;;;;;;;;;;;16.20;94.40;;;;;;4953187;29;19926;-84
2022/09/02 01:43:35;;;;;;;;;;;16.10;94.40;;;;;;4941873;28;20087;-84
2022/09/02 01:46:02;;;;;;;;;;;16.10;94.40;;;;;;4943658;29;20404;-84
2022/09/02 01:48:31;;;;;;;;;;;16.10;94.40;;;;;;4943125;29;19977;-84
2022/09/02 01:50:59;;;;;;;;;;;16.10;94.50;;;;;;4935757;29;20025;-86
2022/09/02 01:53:26;;;;;;;;;;;16.10;94.50;;;;;;4939518;29;19950;-84
2022/09/02 01:55:54;;;;;;;;;;;;;;;;;;4935203;29;19927;-84
2022/09/02 01:58:23;;;;;;;;;;;16.10;94.20;;;;;;4936055;29;20138;-84
2022/09/02 02:00:50;;;;;;;;;;;16.00;94.40;;;;;;4933612;28;19927;-83
2022/09/02 02:03:17;;;;;;;;;;;16.00;94.40;;;;;;4949714;29;19948;-83
2022/09/02 02:05:44;;;;;;;;;;;16.00;94.50;;;;;;4934028;29;19974;-83
2022/09/02 02:08:15;;;;;;;;;;;16.00;94.40;;;;;;4940339;29;19930;-84
2022/09/02 02:10:42;;;;;;;;;;;16.00;94.50;;;;;;4942327;29;19953;-84
2022/09/02 02:13:10;;;;;;;;;;;16.00;94.50;;;;;;4950062;28;19937;-84
2022/09/02 02:15:40;;;;;;;;;;;15.90;94.40;;;;;;4933771;28;19926;-84
2022/09/02 02:18:07;;;;;;;;;;;15.90;94.40;;;;;;4942551;28;19934;-83
2022/09/02 02:20:34;;;;;;;;;;;15.90;94.50;;;;;;4938616;29;19941;-83
2022/09/02 02:23:02;;;;;;;;;;;15.90;94.50;;;;;;4942494;29;19990;-84
2022/09/02 02:25:29;;;;;;;;;;;15.90;94.50;;;;;;4942040;29;19926;-83
2022/09/02 02:27:56;;;;;;;;;;;15.90;94.50;;;;;;4943964;28;19934;-84
2022/09/02 02:30:23;;;;;;;;;;;15.80;94.50;;;;;;4937949;29;20102;-84
2022/09/02 02:32:52;;;;;;;;;;;15.80;94.50;;;;;;4934514;29;19938;-84
2022/09/02 02:35:21;;;;;;;;;;;15.80;94.50;;;;;;4949721;28;19926;-83
2022/09/02 02:37:49;;;;;;;;;;;15.80;94.50;;;;;;4949787;28;19973;-84
2022/09/02 02:40:17;;;;;;;;;;;15.80;94.50;;;;;;4939497;28;19926;-84
2022/09/02 02:42:44;;;;;;;;;;;15.80;94.50;;;;;;4939001;29;19942;-83
2022/09/02 02:45:11;;;;;;;;;;;15.70;94.50;;;;;;4956599;29;19935;-84
2022/09/02 02:47:39;;;;;;;;;;;15.80;94.50;;;;;;4928499;29;19931;-84
2022/09/02 02:50:09;;;;;;;;;;;15.70;94.50;;;;;;4929855;28;19926;-84
2022/09/02 02:52:36;;;;;;;;;;;15.70;94.50;;;;;;4935551;29;20400;-84
2022/09/02 02:55:05;;;;;;;;;;;15.70;94.50;;;;;;4938725;29;19934;-84
2022/09/02 02:57:34;;;;;;;;;;;15.70;94.50;;;;;;4940023;28;19926;-84
2022/09/02 03:00:06;;;;;;;;;;;15.70;94.50;;;;;;4933063;29;19938;-84
2022/09/02 03:02:33;;;;;;;;;;;15.70;94.50;;;;;;4947632;28;20293;-84
2022/09/02 03:05:01;;;;;;;;;;;15.70;94.50;;;;;;4942889;29;19998;-83
2022/09/02 03:07:30;;;;;;;;;;;15.60;94.50;;;;;;4931984;28;19950;-83
2022/09/02 03:09:57;;;;;;;;;;;15.60;94.50;;;;;;4945057;28;19926;-84
2022/09/02 03:12:24;;;;;;;;;;;15.60;94.50;;;;;;4930745;29;19961;-84
2022/09/02 03:14:52;;;;;;;;;;;15.60;94.50;;;;;;4934578;29;20513;-84
2022/09/02 03:17:20;;;;;;;;;;;15.60;94.80;;;;;;4935112;29;19937;-85
2022/09/02 03:19:47;;;;;;;;;;;15.60;94.60;;;;;;4953292;28;19950;-84
2022/09/02 03:22:14;;;;;;;;;;;15.60;94.60;;;;;;4938038;29;20041;-84
2022/09/02 03:24:43;;;;;;;;;;;15.50;94.50;;;;;;4935662;28;19927;-84
2022/09/02 03:27:10;;;;;;;;;;;15.50;94.50;;;;;;4932655;29;19937;-84
2022/09/02 03:29:39;;;;;;;;;;;15.50;94.60;;;;;;4944240;29;19998;-84
2022/09/02 03:32:05;;;;;;;;;;;15.50;94.60;;;;;;4931903;29;19998;-84
2022/09/02 03:34:33;;;;;;;;;;;15.50;94.60;;;;;;4929895;29;19926;-84
2022/09/02 03:36:59;;;;;;;;;;;15.40;94.50;;;;;;4959364;28;20386;-84
2022/09/02 03:39:27;;;;;;;;;;;15.50;94.60;;;;;;4940380;28;20239;-84
2022/09/02 03:41:55;;;;;;;;;;;15.40;94.50;;;;;;4928415;28;20357;-84
2022/09/02 03:44:22;;;;;;;;;;;15.40;94.60;;;;;;4938288;29;19926;-83
2022/09/02 03:46:50;;;;;;;;;;;15.40;94.60;;;;;;4936171;29;20025;-84
2022/09/02 03:49:17;;;;;;;;;;;15.40;94.60;;;;;;4932460;29;19938;-84
2022/09/02 03:51:44;;;;;;;;;;;15.30;94.50;;;;;;4932010;29;19926;-83
2022/09/02 03:54:12;;;;;;;;;;;15.40;94.60;;;;;;4936255;29;19926;-84
2022/09/02 03:56:40;;;;;;;;;;;15.40;94.60;;;;;;4932213;29;20304;-84
2022/09/02 03:59:09;;;;;;;;;;;15.30;94.50;;;;;;4941770;28;19974;-84
2022/09/02 04:01:36;;;;;;;;;;;15.30;94.50;;;;;;4936561;29;19926;-83
2022/09/02 04:04:04;;;;;;;;;;;15.30;94.60;;;;;;4933344;29;19931;-83
2022/09/02 04:06:32;;;;;;;;;;;15.30;94.60;;;;;;4939137;28;19926;-82
2022/09/02 04:09:00;;;;;;;;;;;15.30;94.60;;;;;;4936124;29;19931;-84
2022/09/02 04:11:27;;;;;;;;;;;15.30;94.60;;;;;;4932824;28;19926;-83
2022/09/02 04:13:54;;;;;;;;;;;15.20;94.50;;;;;;4931454;29;19965;-84
2022/09/02 04:23:10;;;;;;;;;;;15.20;94.60;;;;;;4950093;29;19969;-84
2022/09/02 04:25:39;;;;;;;;;;;15.20;94.60;;;;;;4936842;29;20416;-84
2022/09/02 04:28:06;;;;;;;;;;;15.20;94.60;;;;;;4933558;28;19934;-84
2022/09/02 04:30:34;;;;;;;;;;;15.10;94.80;;;;;;4938723;29;19937;-83
2022/09/02 04:33:02;;;;;;;;;;;15.10;94.60;;;;;;4945298;29;19985;-84
2022/09/02 04:35:29;;;;;;;;;;;15.10;94.60;;;;;;4940989;29;19945;-84
2022/09/02 04:37:56;;;;;;;;;;;15.10;94.60;;;;;;4941265;29;19927;-84
2022/09/02 04:40:24;;;;;;;;;;;15.10;94.60;;;;;;4948160;29;19931;-84
2022/09/02 04:42:52;;;;;;;;;;;15.10;94.60;;;;;;4943762;29;19957;-83
2022/09/02 04:45:20;;;;;;;;;;;15.10;94.60;;;;;;4939074;28;19934;-85
2022/09/02 04:47:48;;;;;;;;;;;15.00;94.60;;;;;;4951323;28;19977;-84
2022/09/02 04:50:15;;;;;;;;;;;15.00;94.60;;;;;;4943192;29;19927;-84
2022/09/02 04:52:57;;;;;;;;;;;15.00;94.60;;;;;;4940542;29;20368;-84
2022/09/02 04:55:26;;;;;;;;;;;15.00;94.60;;;;;;4934291;28;20292;-84
2022/09/02 04:57:54;;;;;;;;;;;15.00;94.60;;;;;;4931808;29;19966;-84
2022/09/02 05:00:21;;;;;;;;;;;15.00;94.60;;;;;;4929711;29;19977;-83
2022/09/02 05:02:49;;;;;;;;;;;15.00;94.60;;;;;;4936660;29;19933;-84
2022/09/02 05:05:15;;;;;;;;;;;15.00;94.70;;;;;;4935951;29;19930;-83
2022/09/02 05:07:43;;;;;;;;;;;14.90;94.60;;;;;;4954515;29;19933;-84
2022/09/02 05:10:12;;;;;;;;;;;14.90;94.60;;;;;;4937661;28;19926;-84
2022/09/02 05:12:43;;;;;;;;;;;14.90;94.60;;;;;;4927501;28;19934;-83
2022/09/02 05:15:11;;;;;;;;;;;14.90;94.70;;;;;;4936670;29;19937;-85
2022/09/02 05:17:38;;;;;;;;;;;14.90;94.60;;;;;;4933204;29;20313;-84
2022/09/02 05:20:13;;;;;;;;;;;14.90;94.70;;;;;;4928954;28;19927;-84
2022/09/02 05:22:42;;;;;;;;;;;14.80;94.60;;;;;;4939766;29;19927;-84
2022/09/02 05:25:10;;;;;;;;;;;14.80;94.60;;;;;;4938360;29;20361;-84
2022/09/02 05:27:37;;;;;;;;;;;14.80;94.70;;;;;;4955251;28;19926;-84
2022/09/02 05:30:08;;;;;;;;;;;14.80;94.70;;;;;;4941910;28;19930;-83
2022/09/02 05:32:36;;;;;;;;;;;14.80;94.70;;;;;;4940967;29;20486;-83
2022/09/02 05:35:03;;;;;;;;;;;14.80;94.70;;;;;;4952689;28;21178;-81
2022/09/02 05:37:31;;;;;;;;;;;14.80;94.70;;;;;;4933847;29;19930;-84
2022/09/02 05:40:00;;;;;;;;;;;14.70;94.70;;;;;;4924591;29;19973;-84
2022/09/02 05:42:28;;;;;;;;;;;14.70;94.70;;;;;;4938948;28;19927;-83
2022/09/02 05:44:56;;;;;;;;;;;14.70;94.70;;;;;;4943227;29;19969;-83
2022/09/02 05:47:25;;;;;;;;;;;14.70;94.70;;;;;;4926255;29;19981;-83
2022/09/02 05:49:53;;;;;;;;;;;14.70;94.80;;;;;;4939343;29;19927;-84
2022/09/02 05:52:21;;;;;;;;;;;14.70;94.80;;;;;;4938743;29;19934;-83
2022/09/02 05:54:52;;;;;;;;;;;14.70;94.90;;;;;;4956770;28;19934;-83
2022/09/02 05:57:24;;;;;;;;;;;14.70;94.90;;;;;;4938784;28;19935;-84
2022/09/02 06:00:00;;;;;;;;;;;14.70;94.90;;;;;;4932619;29;19927;-83
2022/09/02 06:02:49;;;;;;;;;;;14.60;94.90;;;;;;4952411;29;19970;-84
2022/09/02 06:05:29;;;;;;;;;;;;;;;;;;4948166;29;20483;-83
2022/09/02 06:08:05;;;;;;;;;;;14.50;94.80;;;;;;4942856;29;19969;-83
2022/09/02 06:10:33;;;;;;;;;;;14.50;95.10;;;;;;4935471;29;19934;-84
2022/09/02 06:13:00;;;;;;;;;;;14.50;95.00;;;;;;4940427;28;19932;-84
2022/09/02 06:15:30;;;;;;;;;;;14.50;95.10;;;;;;4944600;29;19927;-84
2022/09/02 06:17:59;;;;;;;;;;;14.50;95.10;;;;;;4939185;29;19937;-83
2022/09/02 06:20:31;;;;;;;;;;;14.50;95.20;;;;;;4935066;29;19926;-83
2022/09/02 06:22:58;;;;;;;;;;;14.50;95.30;;;;;;4938570;29;19934;-84
2022/09/02 06:25:25;;;;;;;;;;;14.50;95.40;;;;;;4944448;29;19930;-84
2022/09/02 06:27:53;;;;;;;;;;;14.50;95.50;;;;;;4941185;29;19934;-83
2022/09/02 06:30:20;;;;;;;;;;;14.50;95.40;;;;;;4945367;28;19927;-83
2022/09/02 06:32:47;;;;;;;;;;;14.50;95.50;;;;;;4940405;28;20309;-83
2022/09/02 06:35:15;;;;;;;;;;;14.50;95.50;;;;;;4950076;28;19926;-84
2022/09/02 06:37:42;;;;;;;;;;;14.50;95.60;;;;;;4951513;28;19935;-83
2022/09/02 06:40:13;;;;;;;;;;;14.50;95.70;;;;;;4932640;29;19930;-83
2022/09/02 06:42:41;;;;;;;;;;;14.50;95.80;;;;;;4938530;29;20389;-83
2022/09/02 06:45:25;;;;;;;;;;;14.50;95.80;;;;;;4938052;28;19926;-82
2022/09/02 06:47:53;;;;;;;;;;;14.50;96.00;;;;;;4931030;29;19938;-82
2022/09/02 06:50:22;;;;;;;;;;;14.50;96.10;;;;;;4949924;28;19933;-84
2022/09/02 06:52:49;;;;;;;;;;;14.60;96.20;;;;;;4932783;29;19995;-84
2022/09/02 06:55:17;;;;;;;;;;;14.50;96.30;;;;;;4938312;28;19941;-82
2022/09/02 06:57:44;;;;;;;;;;;14.50;96.40;;;;;;4939480;29;19940;-84
2022/09/02 07:00:15;;;;;;;;;;;14.50;96.40;;;;;;4934053;29;19926;-83
2022/09/02 07:02:42;;;;;;;;;;;14.50;96.60;;;;;;4927871;29;20658;-84
2022/09/02 07:05:14;;;;;;;;;;;14.50;96.60;;;;;;4941049;29;20009;-83
2022/09/02 07:07:45;;;;;;;;;;;14.50;96.70;;;;;;4952456;28;19962;-84
2022/09/02 07:10:14;;;;;;;;;;;14.50;96.70;;;;;;4929908;29;19983;-83
2022/09/02 07:12:45;;;;;;;;;;;14.50;96.80;;;;;;4938641;29;20296;-83
2022/09/02 07:15:15;;;;;;;;;;;14.50;96.90;;;;;;4944400;28;19933;-84
2022/09/02 07:17:43;;;;;;;;;;;14.50;96.90;;;;;;4954647;28;20503;-82
2022/09/02 07:20:30;;;;;;;;;;;14.50;97.00;;;;;;4945090;29;20095;-84
2022/09/02 07:23:01;;;;;;;;;;;14.50;97.00;;;;;;4940162;29;19934;-83
2022/09/02 07:25:31;;;;;;;;;;;14.50;97.10;;;;;;4932882;29;20017;-83
2022/09/02 07:27:59;;;;;;;;;;;14.50;97.00;;;;;;4930647;29;19930;-84
2022/09/02 07:30:30;;;;;;;;;;;14.50;97.10;;;;;;4939010;29;19927;-84
2022/09/02 07:33:04;;;;;;;;;;;14.60;97.10;;;;;;4942140;29;19937;-83
2022/09/02 07:35:32;;;;;;;;;;;14.60;97.20;;;;;;4935456;29;20392;-83
2022/09/02 07:38:02;;;;;;;;;;;14.60;97.20;;;;;;4935195;29;19927;-84
2022/09/02 07:40:29;;;;;;;;;;;14.60;97.20;;;;;;4936787;28;20409;-84
2022/09/02 07:42:56;;;;;;;;;;;14.60;97.30;;;;;;4949561;28;20238;-83
2022/09/02 07:45:23;;;;;;;;;;;14.60;97.30;;;;;;4938356;28;19927;-84
2022/09/02 07:47:51;;;;;;;;;;;14.60;97.30;;;;;;4938832;29;19933;-84
2022/09/02 07:50:17;;;;;;;;;;;14.60;97.40;;;;;;4933552;29;19926;-84
2022/09/02 07:52:48;;;;;;;;;;;14.60;97.40;;;;;;4928638;29;20409;-83
2022/09/02 07:55:17;;;;;;;;;;;14.60;97.40;;;;;;4932142;29;19937;-84
2022/09/02 07:57:45;;;;;;;;;;;14.60;97.40;;;;;;4935248;29;19934;-83
2022/09/02 08:00:12;;;;;;;;;;;14.60;97.50;;;;;;4933039;29;20030;-83
2022/09/02 08:02:43;;;;;;;;;;;14.60;97.50;;;;;;4940751;28;19927;-83
2022/09/02 08:05:14;;;;;;;;;;;14.60;97.50;;;;;;4951230;28;19927;-83
2022/09/02 08:07:41;;;;;;;;;;;14.60;97.50;;;;;;4953163;28;19927;-83
2022/09/02 08:10:11;;;;;;;;;;;14.60;97.60;;;;;;4932313;28;19974;-83
2022/09/02 08:12:40;;;;;;;;;;;14.60;97.50;;;;;;4944964;28;19952;-83
2022/09/02 08:15:08;;;;;;;;;;;14.70;97.60;;;;;;4953471;28;19969;-84
2022/09/02 08:17:34;;;;;;;;;;;14.60;97.60;;;;;;4933405;29;19962;-83
2022/09/02 08:20:02;;;;;;;;;;;14.60;97.70;;;;;;4943339;28;19926;-84
2022/09/02 08:22:33;;;;;;;;;;;14.60;97.70;;;;;;4946373;29;19965;-83
2022/09/02 08:25:00;;;;;;;;;;;14.60;97.80;;;;;;4941939;29;19926;-83
2022/09/02 08:27:27;;;;;;;;;;;14.60;97.80;;;;;;4935087;29;20456;-84
2022/09/02 08:29:55;;;;;;;;;;;14.70;97.90;;;;;;4946050;28;19950;-83
2022/09/02 08:32:22;;;;;;;;;;;14.70;97.90;;;;;;4946133;29;19926;-83
2022/09/02 08:34:49;;;;;;;;;;;14.60;97.90;;;;;;4951280;28;19973;-83
2022/09/02 08:37:17;;;;;;;;;;;14.70;98.00;;;;;;4935589;28;19978;-83
2022/09/02 08:39:44;;;;;;;;;;;14.70;98.00;;;;;;4940792;29;20393;-82
2022/09/02 08:42:15;;;;;;;;;;;14.60;98.00;;;;;;4950410;28;19934;-84
2022/09/02 08:44:42;;;;;;;;;;;14.70;98.00;;;;;;4950635;28;19930;-83
2022/09/02 08:47:13;;;;;;;;;;;14.70;98.00;;;;;;4945960;28;20372;-83
2022/09/02 08:49:41;;;;;;;;;;;14.70;98.00;;;;;;4947278;28;19927;-83
2022/09/02 08:52:09;;;;;;;;;;;14.70;98.00;;;;;;4950211;29;20005;-83
2022/09/02 08:54:42;;;;;;;;;;;14.70;98.10;;;;;;4936009;29;19934;-82
2022/09/02 08:57:10;;;;;;;;;;;14.70;98.10;;;;;;4947996;28;20444;-83
2022/09/02 08:59:37;;;;;;;;;;;14.70;98.10;;;;;;4944732;28;19926;-83
2022/09/02 09:02:07;;;;;;;;;;;14.70;98.10;;;;;;4938799;29;19927;-83
2022/09/02 09:04:53;;;;;;;;;;;14.70;98.10;;;;;;4943429;28;19926;-83
2022/09/02 09:07:25;;;;;;;;;;;14.80;98.20;;;;;;4936342;29;19954;-84
2022/09/02 09:10:00;;;;;;;;;;;14.80;98.30;;;;;;4952455;28;19981;-83
2022/09/02 09:12:31;;;;;;;;;;;14.80;98.30;;;;;;4923674;29;19954;-84
2022/09/02 09:15:02;;;;;;;;;;;14.80;98.40;;;;;;4929278;29;19926;-83
2022/09/02 09:17:33;;;;;;;;;;;14.80;98.40;;;;;;4944951;28;19949;-83
2022/09/02 09:20:02;;;;;;;;;;;14.80;98.40;;;;;;4935817;28;19930;-84
2022/09/02 09:22:31;;;;;;;;;;;14.80;98.40;;;;;;4948536;28;19973;-83
2022/09/02 09:24:58;;;;;;;;;;;14.80;98.40;;;;;;4939153;28;19968;-83
2022/09/02 09:27:26;;;;;;;;;;;14.80;98.80;;;;;;4951735;29;19984;-83
2022/09/02 09:29:52;;;;;;;;;;;14.80;98.50;;;;;;4947890;29;20513;-82
2022/09/02 09:32:23;;;;;;;;;;;14.80;98.50;;;;;;4933611;29;19934;-83
2022/09/02 09:35:02;;;;;;;;;;;14.90;98.60;;;;;;4947025;28;19926;-83
2022/09/02 09:37:30;;;;;;;;;;;14.90;98.60;;;;;;4945450;28;19937;-83
2022/09/02 09:39:57;;;;;;;;;;;14.90;98.70;;;;;;4948195;28;19950;-83
2022/09/02 09:42:34;;;;;;;;;;;14.90;98.80;;;;;;4951755;29;19927;-84
2022/09/02 09:45:14;;;;;;;;;;;14.90;98.60;;;;;;4938514;29;19974;-83
2022/09/02 09:47:41;;;;;;;;;;;14.90;98.60;;;;;;4933860;29;19927;-83
2022/09/02 09:50:17;;;;;;;;;;;14.90;98.60;;;;;;4947132;28;19926;-83
2022/09/02 09:52:46;;;;;;;;;;;15.00;98.70;;;;;;4949779;29;19985;-83
2022/09/02 09:55:15;;;;;;;;;;;15.00;98.70;;;;;;4934705;29;20393;-84
2022/09/02 09:57:43;;;;;;;;;;;15.00;98.70;;;;;;4946971;28;20021;-83
2022/09/02 10:00:10;;;;;;;;;;;15.00;98.60;;;;;;4945708;28;19939;-83
2022/09/02 10:02:46;;;;;;;;;;;15.00;98.60;;;;;;4951583;28;19931;-83
2022/09/02 10:05:20;;;;;;;;;;;15.00;98.50;;;;;;4948977;28;19935;-83
2022/09/02 10:07:53;;;;;;;;;;;15.00;98.50;;;;;;4936978;29;19926;-83
2022/09/02 10:10:22;;;;;;;;;;;15.10;98.50;;;;;;4944351;29;19997;-83
2022/09/02 10:12:50;;;;;;;;;;;15.10;98.40;;;;;;4949053;28;20013;-83
2022/09/02 10:15:22;;;;;;;;;;;15.10;98.30;;;;;;4934358;29;19958;-83
2022/09/02 10:17:52;;;;;;;;;;;15.10;98.30;;;;;;4947007;28;19931;-84
2022/09/02 10:20:25;;;;;;;;;;;15.10;98.30;;;;;;4937196;29;20439;-84
2022/09/02 10:23:00;;;;;;;;;;;15.10;98.30;;;;;;4940873;29;20421;-83
2022/09/02 10:25:32;;;;;;;;;;;15.20;98.30;;;;;;4940307;29;19977;-83
2022/09/02 10:28:03;;;;;;;;;;;15.20;98.20;;;;;;4951397;29;19926;-83
2022/09/02 10:30:32;;;;;;;;;;;15.20;98.10;;;;;;4946283;28;20457;-83
2022/09/02 10:33:07;;;;;;;;;;;15.20;98.00;;;;;;4946854;29;19926;-84
2022/09/02 10:35:39;;;;;;;;;;;15.30;98.00;;;;;;4953842;28;19926;-83
2022/09/02 10:38:10;;;;;;;;;;;15.20;97.90;;;;;;4950253;28;20340;-83
2022/09/02 10:40:41;;;;;;;;;;;15.30;97.90;;;;;;4944800;28;19930;-83
2022/09/02 10:43:09;;;;;;;;;;;15.30;97.80;;;;;;4949487;28;20420;-83
2022/09/02 10:45:37;;;;;;;;;;;15.30;97.70;;;;;;4951694;28;19926;-83
2022/09/02 10:48:15;;;;;;;;;;;15.30;97.70;;;;;;4950391;28;20386;-83
2022/09/02 10:50:46;;;;;;;;;;;15.30;97.60;;;;;;4947750;28;19957;-83
2022/09/02 10:53:23;;;;;;;;;;;15.40;97.60;;;;;;4954723;28;19950;-84
2022/09/02 10:55:53;;;;;;;;;;;15.40;97.60;;;;;;4941227;29;19938;-83
2022/09/02 10:58:23;;;;;;;;;;;15.40;97.60;;;;;;4936456;29;19981;-83
2022/09/02 11:00:52;;;;;;;;;;;15.40;97.40;;;;;;4938434;29;20416;-84
2022/09/02 11:03:21;;;;;;;;;;;15.40;97.30;;;;;;4949509;29;19949;-82
2022/09/02 11:05:51;;;;;;;;;;;15.40;97.30;;;;;;4932755;29;19926;-82
2022/09/02 11:08:24;;;;;;;;;;;15.40;97.20;;;;;;4951617;28;20329;-83
2022/09/02 11:10:56;;;;;;;;;;;15.50;97.20;;;;;;4949650;29;19994;-84
2022/09/02 11:13:27;;;;;;;;;;;15.50;97.20;;;;;;4950405;28;19934;-84
2022/09/02 11:15:58;;;;;;;;;;;15.50;97.10;;;;;;4942175;28;19981;-83
2022/09/02 11:18:26;;;;;;;;;;;15.50;97.00;;;;;;4942560;28;19989;-83
2022/09/02 11:20:59;;;;;;;;;;;15.50;97.10;;;;;;4935285;29;19930;-84
2022/09/02 11:23:29;;;;;;;;;;;15.60;97.00;;;;;;4948337;28;19981;-83
2022/09/02 11:26:00;;;;;;;;;;;15.60;96.90;;;;;;4949072;28;20402;-83
2022/09/02 11:28:31;;;;;;;;;;;15.60;96.80;;;;;;4951650;28;20577;-83
2022/09/02 11:31:01;;;;;;;;;;;15.60;96.70;;;;;;4936010;29;20419;-83
2022/09/02 11:33:29;;;;;;;;;;;15.60;96.70;;;;;;4934299;29;19931;-83
2022/09/02 11:35:58;;;;;;;;;;;15.70;96.60;;;;;;4951493;28;19985;-84
2022/09/02 11:38:36;;;;;;;;;;;15.70;96.60;;;;;;4945200;29;19934;-83
2022/09/02 11:41:12;;;;;;;;;;;15.70;96.60;;;;;;4945432;29;19927;-83
2022/09/02 11:43:44;;;;;;;;;;;15.70;96.40;;;;;;4949583;28;19990;-83
2022/09/02 11:46:26;;;;;;;;;;;15.70;96.40;;;;;;4938465;29;19949;-84
2022/09/02 11:48:59;;;;;;;;;;;15.70;96.40;;;;;;4945387;29;19931;-83
2022/09/02 11:51:36;;;;;;;;;;;15.70;96.60;;;;;;4925485;29;20462;-84
2022/09/02 11:54:04;;;;;;;;;;;15.70;96.60;;;;;;4946345;28;19935;-83
2022/09/02 11:56:36;;;;;;;;;;;15.80;96.60;;;;;;4926679;29;20089;-83
2022/09/02 11:59:05;;;;;;;;;;;15.80;96.50;;;;;;4949508;29;19976;-83
2022/09/02 12:01:33;;;;;;;;;;;15.80;96.40;;;;;;4938251;29;19937;-84
2022/09/02 12:04:02;;;;;;;;;;;15.80;96.30;;;;;;4932240;29;19961;-84
2022/09/02 12:06:29;;;;;;;;;;;15.80;96.30;;;;;;4941096;28;20029;-82
2022/09/02 12:09:03;;;;;;;;;;;15.90;96.30;;;;;;4950981;28;19926;-83
2022/09/02 12:11:37;;;;;;;;;;;15.90;96.20;;;;;;4951923;28;19936;-83
2022/09/02 12:14:05;;;;;;;;;;;15.90;96.10;;;;;;4948693;28;19933;-83
2022/09/02 12:16:36;;;;;;;;;;;16.00;96.30;;;;;;4932137;29;19934;-84
2022/09/02 12:19:20;;;;;;;;;;;16.00;96.30;;;;;;4951747;29;21130;-83
2022/09/02 12:22:02;;;;;;;;;;;16.00;96.20;;;;;;4922146;29;19990;-84
2022/09/02 12:24:47;;;;;;;;;;;16.00;96.10;;;;;;4935104;28;19997;-84
2022/09/02 12:27:25;;;;;;;;;;;16.00;95.90;;;;;;4945847;29;20136;-83
2022/09/02 12:29:52;;;;;;;;;;;16.00;96.30;;;;;;4950663;28;20553;-83
2022/09/02 12:32:50;;;;;;;;;;;16.10;96.20;;;;;;4934979;29;20321;-82
2022/09/02 12:35:31;;;;;;;;;;;16.10;96.20;;;;;;4911354;29;20532;-83
2022/09/02 12:38:16;;;;;;;;;;;16.10;96.10;;;;;;4943584;28;19949;-84
2022/09/02 12:40:54;;;;;;;;;;;16.20;96.30;;;;;;4954577;28;19950;-83
2022/09/02 12:43:24;;;;;;;;;;;16.20;96.30;;;;;;4934020;29;19931;-83
2022/09/02 12:45:53;;;;;;;;;;;16.20;96.30;;;;;;4933585;29;19927;-83
2022/09/02 12:48:24;;;;;;;;;;;16.30;96.40;;;;;;4951186;29;20013;-83
2022/09/02 12:50:54;;;;;;;;;;;16.30;96.20;;;;;;4951844;28;19945;-83
2022/09/02 12:53:34;;;;;;;;;;;16.30;96.20;;;;;;4955578;28;19934;-83
2022/09/02 12:56:05;;;;;;;;;;;16.40;96.30;;;;;;4947093;28;19934;-83
2022/09/02 12:58:34;;;;;;;;;;;16.40;96.30;;;;;;4950253;28;19932;-83
2022/09/02 13:01:06;;;;;;;;;;;16.50;96.30;;;;;;4949227;28;19930;-83
2022/09/02 13:03:42;;;;;;;;;;;16.50;96.10;;;;;;4954612;28;20033;-83
2022/09/02 13:06:13;;;;;;;;;;;16.60;96.30;;;;;;4947994;28;19981;-82
2022/09/02 13:08:58;;;;;;;;;;;16.50;96.30;;;;;;4934724;29;20021;-83
2022/09/02 13:11:44;;;;;;;;;;;16.60;96.60;;;;;;4955582;28;19981;-82
2022/09/02 13:14:30;;;;;;;;;;;16.60;96.60;;;;;;4952996;28;19930;-83
2022/09/02 13:17:06;;;;;;;;;;;16.70;96.50;;;;;;4953146;28;19938;-82
2022/09/02 13:19:52;;;;;;;;;;;16.80;96.50;;;;;;4935828;29;20192;-82
2022/09/02 13:22:33;;;;;;;;;;;16.80;96.30;;;;;;4950541;29;20455;-83
2022/09/02 13:25:30;;;;;;;;;;;16.80;96.20;;;;;;4934101;29;19959;-82
2022/09/02 13:27:58;;;;;;;;;;;;;;;;;;4942227;29;19931;-83
2022/09/02 13:30:31;;;;;;;;;;;17.00;96.00;;;;;;4953660;28;20409;-82
2022/09/02 13:33:04;;;;;;;;;;;17.00;96.20;;;;;;4951025;28;19926;-83
2022/09/02 13:35:31;;;;;;;;;;;17.00;96.10;;;;;;4950147;28;20398;-83
2022/09/02 13:37:59;;;;;;;;;;;17.10;96.20;;;;;;4952531;28;20313;-83
2022/09/02 13:40:27;;;;;;;;;;;17.10;96.10;;;;;;4954476;28;19930;-83
2022/09/02 13:42:54;;;;;;;;;;;17.10;96.10;;;;;;4949626;29;20436;-83
2022/09/02 13:45:22;;;;;;;;;;;17.20;96.00;;;;;;4957555;28;20408;-82
2022/09/02 13:47:53;;;;;;;;;;;17.20;95.90;;;;;;4943875;29;20017;-82
2022/09/02 13:50:22;;;;;;;;;;;17.30;95.90;;;;;;4953037;28;19974;-83
2022/09/02 13:52:51;;;;;;;;;;;17.30;95.70;;;;;;4950813;29;19947;-83
2022/09/02 13:55:19;;;;;;;;;;;17.40;95.70;;;;;;4953402;28;19931;-81
2022/09/02 13:57:48;;;;;;;;;;;17.40;95.60;;;;;;4933797;29;19981;-82
2022/09/02 14:00:25;;;;;;;;;;;17.40;95.40;;;;;;4944125;29;19933;-82
2022/09/02 14:02:57;;;;;;;;;;;17.50;95.60;;;;;;4955257;29;20393;-83
2022/09/02 14:05:26;;;;;;;;;;;17.50;95.40;;;;;;4951631;29;19998;-82
2022/09/02 14:07:57;;;;;;;;;;;17.60;95.40;;;;;;4946782;28;19934;-83
2022/09/02 14:10:26;;;;;;;;;;;17.60;95.50;;;;;;4953196;28;19926;-83
2022/09/02 14:12:54;;;;;;;;;;;17.60;95.60;;;;;;4954570;28;20030;-82
2022/09/02 14:15:23;;;;;;;;;;;17.70;95.60;;;;;;4967965;28;19930;-82
2022/09/02 14:18:05;;;;;;;;;;;17.70;95.60;;;;;;4946285;28;19926;-83
2022/09/02 14:20:34;;;;;;;;;;;17.80;95.40;;;;;;4951968;28;19933;-82
2022/09/02 14:23:01;;;;;;;;;;;17.80;95.50;;;;;;4934300;29;20389;-82
2022/09/02 14:25:31;;;;;;;;;;;17.90;95.40;;;;;;4937663;29;20377;-82
2022/09/02 14:28:00;;;;;;;;;;;17.90;95.40;;;;;;4951905;28;20020;-81
2022/09/02 14:30:33;;;;;;;;;;;17.90;95.30;;;;;;4952428;28;19926;-83
2022/09/02 14:33:16;;;;;;;;;;;18.00;95.20;;;;;;4949638;28;19958;-82
2022/09/02 14:35:54;;;;;;;;;;;18.00;95.30;;;;;;4953040;28;20309;-82
2022/09/02 14:38:22;;;;;;;;;;;18.10;95.20;;;;;;4952855;28;19930;-82
2022/09/02 14:40:58;;;;;;;;;;;18.10;95.30;;;;;;4930895;29;19969;-82
2022/09/02 14:43:25;;;;;;;;;;;18.20;95.10;;;;;;4944297;28;19927;-82